sensor_id;sensor_type;location;lat;lon;timestamp;P1;durP1;ratioP1;P2;durP2;ratioP2
68010;SDS011;54794;48.348;7.878;2023-02-11T00:01:15;7.97;;;4.43;;
68010;SDS011;54794;48.348;7.878;2023-02-11T00:03:50;9.10;;;4.43;;
68010;SDS011;54794;48.348;7.878;2023-02-11T00:06:18;8.25;;;4.45;;
68010;SDS011;54794;48.348;7.878;2023-02-11T00:08:45;7.65;;;3.72;;
68010;SDS011;54794;48.348;7.878;2023-02-11T00:11:13;7.88;;;4.13;;
68010;SDS011;54794;48.348;7.878;2023-02-11T00:13:43;6.45;;;3.78;;
68010;SDS011;54794;48.348;7.878;2023-02-11T00:16:12;6.38;;;3.80;;
68010;SDS011;54794;48.348;7.878;2023-02-11T00:18:42;8.15;;;4.40;;
68010;SDS011;54794;48.348;7.878;2023-02-11T00:21:11;7.13;;;3.92;;
68010;SDS011;54794;48.348;7.878;2023-02-11T00:23:45;6.68;;;3.92;;
68010;SDS011;54794;48.348;7.878;2023-02-11T00:26:17;7.60;;;4.13;;
68010;SDS011;54794;48.348;7.878;2023-02-11T00:28:48;7.55;;;3.95;;
68010;SDS011;54794;48.348;7.878;2023-02-11T00:31:16;7.90;;;3.92;;
68010;SDS011;54794;48.348;7.878;2023-02-11T00:33:46;6.85;;;3.85;;
68010;SDS011;54794;48.348;7.878;2023-02-11T00:36:14;5.82;;;3.28;;
68010;SDS011;54794;48.348;7.878;2023-02-11T00:38:45;5.97;;;3.55;;
68010;SDS011;54794;48.348;7.878;2023-02-11T00:41:13;6.45;;;3.50;;
68010;SDS011;54794;48.348;7.878;2023-02-11T00:43:42;7.50;;;3.72;;
68010;SDS011;54794;48.348;7.878;2023-02-11T00:46:09;7.03;;;3.67;;
68010;SDS011;54794;48.348;7.878;2023-02-11T00:48:36;7.30;;;3.78;;
68010;SDS011;54794;48.348;7.878;2023-02-11T00:51:04;6.60;;;3.47;;
68010;SDS011;54794;48.348;7.878;2023-02-11T00:53:32;5.90;;;3.60;;
68010;SDS011;54794;48.348;7.878;2023-02-11T00:55:59;7.32;;;3.97;;
68010;SDS011;54794;48.348;7.878;2023-02-11T00:58:27;4.93;;;3.20;;
68010;SDS011;54794;48.348;7.878;2023-02-11T01:03:22;6.47;;;3.35;;
68010;SDS011;54794;48.348;7.878;2023-02-11T01:05:49;5.35;;;3.17;;
68010;SDS011;54794;48.348;7.878;2023-02-11T01:08:16;6.13;;;3.60;;
68010;SDS011;54794;48.348;7.878;2023-02-11T01:10:43;6.10;;;3.60;;
68010;SDS011;54794;48.348;7.878;2023-02-11T01:13:10;5.75;;;3.45;;
68010;SDS011;54794;48.348;7.878;2023-02-11T01:15:37;6.63;;;3.28;;
68010;SDS011;54794;48.348;7.878;2023-02-11T01:18:04;6.55;;;3.55;;
68010;SDS011;54794;48.348;7.878;2023-02-11T01:22:58;5.75;;;3.05;;
68010;SDS011;54794;48.348;7.878;2023-02-11T01:25:25;5.45;;;3.33;;
68010;SDS011;54794;48.348;7.878;2023-02-11T01:27:52;9.60;;;3.88;;
68010;SDS011;54794;48.348;7.878;2023-02-11T01:30:19;6.72;;;3.60;;
68010;SDS011;54794;48.348;7.878;2023-02-11T01:32:45;5.72;;;3.70;;
68010;SDS011;54794;48.348;7.878;2023-02-11T01:35:12;8.23;;;4.47;;
68010;SDS011;54794;48.348;7.878;2023-02-11T01:37:39;7.85;;;4.15;;
68010;SDS011;54794;48.348;7.878;2023-02-11T01:40:10;6.80;;;3.47;;
68010;SDS011;54794;48.348;7.878;2023-02-11T01:42:41;7.00;;;3.40;;
68010;SDS011;54794;48.348;7.878;2023-02-11T01:50:40;4.20;;;2.63;;
68010;SDS011;54794;48.348;7.878;2023-02-11T01:53:10;6.95;;;3.58;;
68010;SDS011;54794;48.348;7.878;2023-02-11T01:55:56;6.00;;;3.75;;
68010;SDS011;54794;48.348;7.878;2023-02-11T01:58:42;6.43;;;3.75;;
68010;SDS011;54794;48.348;7.878;2023-02-11T02:01:14;7.43;;;3.80;;
68010;SDS011;54794;48.348;7.878;2023-02-11T02:03:47;6.55;;;3.88;;
68010;SDS011;54794;48.348;7.878;2023-02-11T02:06:32;6.65;;;3.60;;
68010;SDS011;54794;48.348;7.878;2023-02-11T02:09:24;8.75;;;4.10;;
68010;SDS011;54794;48.348;7.878;2023-02-11T02:11:56;6.13;;;3.53;;
68010;SDS011;54794;48.348;7.878;2023-02-11T02:14:23;7.68;;;4.22;;
68010;SDS011;54794;48.348;7.878;2023-02-11T02:16:49;7.25;;;3.67;;
68010;SDS011;54794;48.348;7.878;2023-02-11T02:22:37;5.95;;;3.45;;
68010;SDS011;54794;48.348;7.878;2023-02-11T02:31:44;5.78;;;3.42;;
68010;SDS011;54794;48.348;7.878;2023-02-11T02:37:39;6.85;;;3.30;;
68010;SDS011;54794;48.348;7.878;2023-02-11T02:40:22;8.55;;;3.75;;
68010;SDS011;54794;48.348;7.878;2023-02-11T02:42:56;7.10;;;3.92;;
68010;SDS011;54794;48.348;7.878;2023-02-11T02:45:26;6.65;;;3.70;;
68010;SDS011;54794;48.348;7.878;2023-02-11T02:47:53;6.20;;;3.30;;
68010;SDS011;54794;48.348;7.878;2023-02-11T02:50:21;7.55;;;3.25;;
68010;SDS011;54794;48.348;7.878;2023-02-11T02:55:57;7.60;;;3.60;;
68010;SDS011;54794;48.348;7.878;2023-02-11T02:58:54;7.13;;;3.40;;
68010;SDS011;54794;48.348;7.878;2023-02-11T03:04:51;6.60;;;3.47;;
68010;SDS011;54794;48.348;7.878;2023-02-11T03:10:31;7.63;;;4.18;;
68010;SDS011;54794;48.348;7.878;2023-02-11T03:13:10;6.43;;;3.58;;
68010;SDS011;54794;48.348;7.878;2023-02-11T03:15:43;9.15;;;4.85;;
68010;SDS011;54794;48.348;7.878;2023-02-11T03:18:17;6.25;;;3.38;;
68010;SDS011;54794;48.348;7.878;2023-02-11T03:20:50;6.40;;;3.70;;
68010;SDS011;54794;48.348;7.878;2023-02-11T03:23:25;6.55;;;3.70;;
68010;SDS011;54794;48.348;7.878;2023-02-11T03:26:00;6.25;;;3.70;;
68010;SDS011;54794;48.348;7.878;2023-02-11T03:28:49;7.18;;;3.60;;
68010;SDS011;54794;48.348;7.878;2023-02-11T03:31:30;6.97;;;3.92;;
68010;SDS011;54794;48.348;7.878;2023-02-11T03:34:18;7.28;;;3.78;;
68010;SDS011;54794;48.348;7.878;2023-02-11T03:36:58;6.20;;;3.67;;
68010;SDS011;54794;48.348;7.878;2023-02-11T03:39:49;6.13;;;3.42;;
68010;SDS011;54794;48.348;7.878;2023-02-11T03:42:22;6.15;;;3.50;;
68010;SDS011;54794;48.348;7.878;2023-02-11T03:45:08;6.40;;;3.55;;
68010;SDS011;54794;48.348;7.878;2023-02-11T03:47:42;7.20;;;4.25;;
68010;SDS011;54794;48.348;7.878;2023-02-11T03:50:15;5.82;;;3.25;;
68010;SDS011;54794;48.348;7.878;2023-02-11T03:52:45;5.95;;;2.95;;
68010;SDS011;54794;48.348;7.878;2023-02-11T03:55:16;6.30;;;3.30;;
68010;SDS011;54794;48.348;7.878;2023-02-11T03:57:46;6.10;;;3.50;;
68010;SDS011;54794;48.348;7.878;2023-02-11T04:02:40;7.30;;;3.30;;
68010;SDS011;54794;48.348;7.878;2023-02-11T04:05:09;6.00;;;3.10;;
68010;SDS011;54794;48.348;7.878;2023-02-11T04:07:39;5.72;;;3.40;;
68010;SDS011;54794;48.348;7.878;2023-02-11T04:10:07;6.72;;;3.15;;
68010;SDS011;54794;48.348;7.878;2023-02-11T04:12:34;5.22;;;3.17;;
68010;SDS011;54794;48.348;7.878;2023-02-11T04:15:01;6.88;;;3.47;;
68010;SDS011;54794;48.348;7.878;2023-02-11T04:17:28;5.63;;;2.80;;
68010;SDS011;54794;48.348;7.878;2023-02-11T04:19:55;5.25;;;3.10;;
68010;SDS011;54794;48.348;7.878;2023-02-11T04:22:22;7.10;;;3.80;;
68010;SDS011;54794;48.348;7.878;2023-02-11T04:24:49;6.07;;;3.55;;
68010;SDS011;54794;48.348;7.878;2023-02-11T04:27:16;5.28;;;2.85;;
68010;SDS011;54794;48.348;7.878;2023-02-11T04:29:43;5.30;;;3.15;;
68010;SDS011;54794;48.348;7.878;2023-02-11T04:32:10;5.28;;;3.13;;
68010;SDS011;54794;48.348;7.878;2023-02-11T04:34:37;6.40;;;3.35;;
68010;SDS011;54794;48.348;7.878;2023-02-11T04:37:04;6.38;;;3.50;;
68010;SDS011;54794;48.348;7.878;2023-02-11T04:39:32;8.02;;;3.88;;
68010;SDS011;54794;48.348;7.878;2023-02-11T04:41:59;6.15;;;3.47;;
68010;SDS011;54794;48.348;7.878;2023-02-11T04:44:26;6.97;;;3.90;;
68010;SDS011;54794;48.348;7.878;2023-02-11T04:46:53;6.50;;;3.45;;
68010;SDS011;54794;48.348;7.878;2023-02-11T04:49:19;6.45;;;3.80;;
68010;SDS011;54794;48.348;7.878;2023-02-11T04:51:46;5.68;;;2.92;;
68010;SDS011;54794;48.348;7.878;2023-02-11T04:54:14;5.50;;;3.33;;
68010;SDS011;54794;48.348;7.878;2023-02-11T04:59:09;5.18;;;3.05;;
68010;SDS011;54794;48.348;7.878;2023-02-11T05:01:38;8.48;;;3.30;;
68010;SDS011;54794;48.348;7.878;2023-02-11T05:04:05;6.40;;;3.53;;
68010;SDS011;54794;48.348;7.878;2023-02-11T05:06:33;6.03;;;3.17;;
68010;SDS011;54794;48.348;7.878;2023-02-11T05:09:00;7.60;;;3.38;;
68010;SDS011;54794;48.348;7.878;2023-02-11T05:11:27;5.78;;;3.65;;
68010;SDS011;54794;48.348;7.878;2023-02-11T05:16:21;6.00;;;3.22;;
68010;SDS011;54794;48.348;7.878;2023-02-11T05:18:48;5.75;;;3.25;;
68010;SDS011;54794;48.348;7.878;2023-02-11T05:21:18;6.15;;;3.30;;
68010;SDS011;54794;48.348;7.878;2023-02-11T05:23:45;7.20;;;3.60;;
68010;SDS011;54794;48.348;7.878;2023-02-11T05:28:40;5.60;;;2.92;;
68010;SDS011;54794;48.348;7.878;2023-02-11T05:31:07;6.00;;;3.30;;
68010;SDS011;54794;48.348;7.878;2023-02-11T05:33:35;4.18;;;2.85;;
68010;SDS011;54794;48.348;7.878;2023-02-11T05:36:04;6.57;;;3.50;;
68010;SDS011;54794;48.348;7.878;2023-02-11T05:38:35;6.50;;;3.25;;
68010;SDS011;54794;48.348;7.878;2023-02-11T05:41:03;5.25;;;3.35;;
68010;SDS011;54794;48.348;7.878;2023-02-11T05:43:32;8.00;;;4.00;;
68010;SDS011;54794;48.348;7.878;2023-02-11T05:46:00;7.43;;;3.90;;
68010;SDS011;54794;48.348;7.878;2023-02-11T05:48:28;10.35;;;5.13;;
68010;SDS011;54794;48.348;7.878;2023-02-11T05:50:56;7.78;;;4.22;;
68010;SDS011;54794;48.348;7.878;2023-02-11T05:53:23;7.28;;;3.97;;
68010;SDS011;54794;48.348;7.878;2023-02-11T05:55:50;7.57;;;3.83;;
68010;SDS011;54794;48.348;7.878;2023-02-11T05:58:17;7.43;;;3.55;;
68010;SDS011;54794;48.348;7.878;2023-02-11T06:00:44;6.78;;;3.85;;
68010;SDS011;54794;48.348;7.878;2023-02-11T06:03:11;7.63;;;3.78;;
68010;SDS011;54794;48.348;7.878;2023-02-11T06:05:38;5.03;;;3.05;;
68010;SDS011;54794;48.348;7.878;2023-02-11T06:08:05;5.60;;;3.20;;
68010;SDS011;54794;48.348;7.878;2023-02-11T06:10:32;6.80;;;3.60;;
68010;SDS011;54794;48.348;7.878;2023-02-11T06:13:00;5.07;;;3.15;;
68010;SDS011;54794;48.348;7.878;2023-02-11T06:15:27;5.47;;;3.22;;
68010;SDS011;54794;48.348;7.878;2023-02-11T06:17:54;5.75;;;3.15;;
68010;SDS011;54794;48.348;7.878;2023-02-11T06:20:21;5.07;;;3.20;;
68010;SDS011;54794;48.348;7.878;2023-02-11T06:22:48;5.43;;;3.45;;
68010;SDS011;54794;48.348;7.878;2023-02-11T06:25:15;6.43;;;3.50;;
68010;SDS011;54794;48.348;7.878;2023-02-11T06:27:42;6.72;;;3.38;;
68010;SDS011;54794;48.348;7.878;2023-02-11T06:30:09;5.45;;;3.30;;
68010;SDS011;54794;48.348;7.878;2023-02-11T06:32:37;8.32;;;3.25;;
68010;SDS011;54794;48.348;7.878;2023-02-11T06:35:10;6.90;;;3.47;;
68010;SDS011;54794;48.348;7.878;2023-02-11T06:37:39;5.65;;;3.38;;
68010;SDS011;54794;48.348;7.878;2023-02-11T06:40:06;6.50;;;3.03;;
68010;SDS011;54794;48.348;7.878;2023-02-11T06:42:34;6.40;;;3.17;;
68010;SDS011;54794;48.348;7.878;2023-02-11T06:45:03;7.22;;;3.80;;
68010;SDS011;54794;48.348;7.878;2023-02-11T06:47:34;5.72;;;3.33;;
68010;SDS011;54794;48.348;7.878;2023-02-11T06:50:01;6.13;;;3.38;;
68010;SDS011;54794;48.348;7.878;2023-02-11T06:52:28;6.13;;;3.50;;
68010;SDS011;54794;48.348;7.878;2023-02-11T06:54:55;6.15;;;3.35;;
68010;SDS011;54794;48.348;7.878;2023-02-11T06:57:22;5.65;;;3.05;;
68010;SDS011;54794;48.348;7.878;2023-02-11T06:59:49;6.00;;;3.17;;
68010;SDS011;54794;48.348;7.878;2023-02-11T07:04:46;5.57;;;2.90;;
68010;SDS011;54794;48.348;7.878;2023-02-11T07:07:13;5.90;;;3.33;;
68010;SDS011;54794;48.348;7.878;2023-02-11T07:09:40;6.50;;;3.08;;
68010;SDS011;54794;48.348;7.878;2023-02-11T07:12:08;6.70;;;3.65;;
68010;SDS011;54794;48.348;7.878;2023-02-11T07:14:36;6.00;;;3.60;;
68010;SDS011;54794;48.348;7.878;2023-02-11T07:17:03;6.88;;;3.90;;
68010;SDS011;54794;48.348;7.878;2023-02-11T07:19:31;7.30;;;4.30;;
68010;SDS011;54794;48.348;7.878;2023-02-11T07:21:58;7.82;;;4.50;;
68010;SDS011;54794;48.348;7.878;2023-02-11T07:24:27;6.60;;;3.85;;
68010;SDS011;54794;48.348;7.878;2023-02-11T07:26:54;7.95;;;4.55;;
68010;SDS011;54794;48.348;7.878;2023-02-11T07:29:21;7.13;;;4.22;;
68010;SDS011;54794;48.348;7.878;2023-02-11T07:32:02;5.47;;;3.53;;
68010;SDS011;54794;48.348;7.878;2023-02-11T07:34:33;6.78;;;3.67;;
68010;SDS011;54794;48.348;7.878;2023-02-11T07:37:08;6.85;;;3.22;;
68010;SDS011;54794;48.348;7.878;2023-02-11T07:40:10;6.30;;;3.40;;
68010;SDS011;54794;48.348;7.878;2023-02-11T07:45:09;4.78;;;2.78;;
68010;SDS011;54794;48.348;7.878;2023-02-11T07:47:45;6.50;;;3.45;;
68010;SDS011;54794;48.348;7.878;2023-02-11T07:50:16;5.97;;;3.65;;
68010;SDS011;54794;48.348;7.878;2023-02-11T07:52:43;6.70;;;3.55;;
68010;SDS011;54794;48.348;7.878;2023-02-11T07:55:11;5.38;;;3.13;;
68010;SDS011;54794;48.348;7.878;2023-02-11T07:57:45;6.18;;;3.42;;
68010;SDS011;54794;48.348;7.878;2023-02-11T08:00:20;6.68;;;3.72;;
68010;SDS011;54794;48.348;7.878;2023-02-11T08:02:58;5.72;;;3.53;;
68010;SDS011;54794;48.348;7.878;2023-02-11T08:09:58;5.18;;;3.03;;
68010;SDS011;54794;48.348;7.878;2023-02-11T08:12:38;6.20;;;3.30;;
68010;SDS011;54794;48.348;7.878;2023-02-11T08:15:10;5.38;;;3.00;;
68010;SDS011;54794;48.348;7.878;2023-02-11T08:18:37;4.95;;;2.92;;
68010;SDS011;54794;48.348;7.878;2023-02-11T08:21:09;5.95;;;3.50;;
68010;SDS011;54794;48.348;7.878;2023-02-11T08:23:50;5.68;;;3.30;;
68010;SDS011;54794;48.348;7.878;2023-02-11T08:26:19;8.43;;;3.90;;
68010;SDS011;54794;48.348;7.878;2023-02-11T08:28:54;8.13;;;3.78;;
68010;SDS011;54794;48.348;7.878;2023-02-11T08:33:56;5.70;;;3.55;;
68010;SDS011;54794;48.348;7.878;2023-02-11T08:36:28;6.57;;;3.78;;
68010;SDS011;54794;48.348;7.878;2023-02-11T08:39:00;6.18;;;3.38;;
68010;SDS011;54794;48.348;7.878;2023-02-11T08:41:48;4.50;;;2.75;;
68010;SDS011;54794;48.348;7.878;2023-02-11T08:44:19;6.40;;;4.00;;
68010;SDS011;54794;48.348;7.878;2023-02-11T08:46:47;7.35;;;4.30;;
68010;SDS011;54794;48.348;7.878;2023-02-11T08:49:16;6.63;;;3.58;;
68010;SDS011;54794;48.348;7.878;2023-02-11T08:54:11;4.97;;;3.10;;
68010;SDS011;54794;48.348;7.878;2023-02-11T08:56:39;6.32;;;3.65;;
68010;SDS011;54794;48.348;7.878;2023-02-11T08:59:07;6.00;;;3.50;;
68010;SDS011;54794;48.348;7.878;2023-02-11T09:01:36;6.35;;;3.92;;
68010;SDS011;54794;48.348;7.878;2023-02-11T09:04:03;8.60;;;3.97;;
68010;SDS011;54794;48.348;7.878;2023-02-11T09:06:30;6.80;;;3.60;;
68010;SDS011;54794;48.348;7.878;2023-02-11T09:08:57;6.93;;;3.45;;
68010;SDS011;54794;48.348;7.878;2023-02-11T09:11:26;5.90;;;3.63;;
68010;SDS011;54794;48.348;7.878;2023-02-11T09:13:57;7.10;;;3.83;;
68010;SDS011;54794;48.348;7.878;2023-02-11T09:16:27;7.20;;;4.22;;
68010;SDS011;54794;48.348;7.878;2023-02-11T09:18:56;6.07;;;3.65;;
68010;SDS011;54794;48.348;7.878;2023-02-11T09:21:25;8.20;;;3.85;;
68010;SDS011;54794;48.348;7.878;2023-02-11T09:23:53;8.27;;;4.47;;
68010;SDS011;54794;48.348;7.878;2023-02-11T09:26:25;7.40;;;3.78;;
68010;SDS011;54794;48.348;7.878;2023-02-11T09:28:58;6.63;;;3.95;;
68010;SDS011;54794;48.348;7.878;2023-02-11T09:31:27;10.00;;;4.68;;
68010;SDS011;54794;48.348;7.878;2023-02-11T09:34:00;6.93;;;4.03;;
68010;SDS011;54794;48.348;7.878;2023-02-11T09:36:32;7.72;;;4.40;;
68010;SDS011;54794;48.348;7.878;2023-02-11T09:39:03;10.57;;;4.85;;
68010;SDS011;54794;48.348;7.878;2023-02-11T09:41:42;8.77;;;4.70;;
68010;SDS011;54794;48.348;7.878;2023-02-11T09:44:49;12.02;;;6.00;;
68010;SDS011;54794;48.348;7.878;2023-02-11T09:47:27;10.70;;;5.78;;
68010;SDS011;54794;48.348;7.878;2023-02-11T09:50:00;12.02;;;6.57;;
68010;SDS011;54794;48.348;7.878;2023-02-11T09:52:55;10.80;;;5.68;;
68010;SDS011;54794;48.348;7.878;2023-02-11T09:55:29;8.95;;;5.47;;
68010;SDS011;54794;48.348;7.878;2023-02-11T10:01:06;9.43;;;5.45;;
68010;SDS011;54794;48.348;7.878;2023-02-11T10:06:49;10.90;;;6.63;;
68010;SDS011;54794;48.348;7.878;2023-02-11T10:09:34;11.25;;;6.70;;
68010;SDS011;54794;48.348;7.878;2023-02-11T10:12:51;10.32;;;5.85;;
68010;SDS011;54794;48.348;7.878;2023-02-11T10:15:51;9.77;;;5.45;;
68010;SDS011;54794;48.348;7.878;2023-02-11T10:27:46;13.45;;;6.35;;
68010;SDS011;54794;48.348;7.878;2023-02-11T10:30:22;14.10;;;8.38;;
68010;SDS011;54794;48.348;7.878;2023-02-11T10:33:06;15.38;;;8.73;;
68010;SDS011;54794;48.348;7.878;2023-02-11T10:36:02;12.05;;;7.60;;
68010;SDS011;54794;48.348;7.878;2023-02-11T10:38:30;19.98;;;11.00;;
68010;SDS011;54794;48.348;7.878;2023-02-11T10:40:58;16.83;;;9.32;;
68010;SDS011;54794;48.348;7.878;2023-02-11T10:43:27;15.25;;;8.27;;
68010;SDS011;54794;48.348;7.878;2023-02-11T10:45:57;13.63;;;7.50;;
68010;SDS011;54794;48.348;7.878;2023-02-11T10:53:52;16.23;;;9.25;;
68010;SDS011;54794;48.348;7.878;2023-02-11T10:56:45;15.77;;;8.13;;
68010;SDS011;54794;48.348;7.878;2023-02-11T10:59:29;14.90;;;7.88;;
68010;SDS011;54794;48.348;7.878;2023-02-11T11:02:22;11.60;;;6.72;;
68010;SDS011;54794;48.348;7.878;2023-02-11T11:05:03;11.00;;;6.18;;
68010;SDS011;54794;48.348;7.878;2023-02-11T11:07:50;12.65;;;7.15;;
68010;SDS011;54794;48.348;7.878;2023-02-11T11:10:30;14.75;;;7.82;;
68010;SDS011;54794;48.348;7.878;2023-02-11T11:13:22;13.00;;;7.28;;
68010;SDS011;54794;48.348;7.878;2023-02-11T11:18:39;17.90;;;7.18;;
68010;SDS011;54794;48.348;7.878;2023-02-11T11:21:25;15.48;;;7.75;;
68010;SDS011;54794;48.348;7.878;2023-02-11T11:24:19;14.60;;;7.72;;
68010;SDS011;54794;48.348;7.878;2023-02-11T11:26:57;14.48;;;7.28;;
68010;SDS011;54794;48.348;7.878;2023-02-11T11:32:12;13.65;;;7.05;;
68010;SDS011;54794;48.348;7.878;2023-02-11T11:34:48;16.55;;;7.25;;
68010;SDS011;54794;48.348;7.878;2023-02-11T11:40:09;14.48;;;7.00;;
68010;SDS011;54794;48.348;7.878;2023-02-11T11:45:51;13.70;;;6.70;;
68010;SDS011;54794;48.348;7.878;2023-02-11T11:48:39;14.02;;;6.72;;
68010;SDS011;54794;48.348;7.878;2023-02-11T11:51:14;13.43;;;7.20;;
68010;SDS011;54794;48.348;7.878;2023-02-11T11:56:29;12.60;;;7.30;;
68010;SDS011;54794;48.348;7.878;2023-02-11T11:59:02;12.98;;;6.68;;
68010;SDS011;54794;48.348;7.878;2023-02-11T12:16:49;10.32;;;5.90;;
68010;SDS011;54794;48.348;7.878;2023-02-11T12:22:47;8.43;;;4.38;;
68010;SDS011;54794;48.348;7.878;2023-02-11T12:31:12;10.45;;;5.85;;
68010;SDS011;54794;48.348;7.878;2023-02-11T12:36:43;10.13;;;5.28;;
68010;SDS011;54794;48.348;7.878;2023-02-11T12:45:24;11.15;;;5.82;;
68010;SDS011;54794;48.348;7.878;2023-02-11T13:08:13;10.23;;;5.32;;
68010;SDS011;54794;48.348;7.878;2023-02-11T13:10:54;9.45;;;5.25;;
68010;SDS011;54794;48.348;7.878;2023-02-11T13:13:33;10.38;;;5.20;;
68010;SDS011;54794;48.348;7.878;2023-02-11T13:16:54;10.88;;;5.05;;
68010;SDS011;54794;48.348;7.878;2023-02-11T13:22:11;8.38;;;3.95;;
68010;SDS011;54794;48.348;7.878;2023-02-11T13:27:56;7.53;;;4.38;;
68010;SDS011;54794;48.348;7.878;2023-02-11T13:30:45;9.60;;;4.43;;
68010;SDS011;54794;48.348;7.878;2023-02-11T13:33:18;7.32;;;3.97;;
68010;SDS011;54794;48.348;7.878;2023-02-11T13:38:25;8.67;;;4.80;;
68010;SDS011;54794;48.348;7.878;2023-02-11T13:41:02;7.45;;;4.18;;
68010;SDS011;54794;48.348;7.878;2023-02-11T13:44:03;7.57;;;4.05;;
68010;SDS011;54794;48.348;7.878;2023-02-11T13:49:48;6.43;;;3.53;;
68010;SDS011;54794;48.348;7.878;2023-02-11T13:55:06;5.03;;;3.05;;
68010;SDS011;54794;48.348;7.878;2023-02-11T13:58:14;4.40;;;2.42;;
68010;SDS011;54794;48.348;7.878;2023-02-11T14:09:07;2.47;;;1.45;;
68010;SDS011;54794;48.348;7.878;2023-02-11T14:12:15;3.55;;;1.10;;
68010;SDS011;54794;48.348;7.878;2023-02-11T14:15:09;1.08;;;0.77;;
68010;SDS011;54794;48.348;7.878;2023-02-11T14:17:44;2.15;;;1.00;;
68010;SDS011;54794;48.348;7.878;2023-02-11T14:20:54;2.53;;;1.08;;
68010;SDS011;54794;48.348;7.878;2023-02-11T14:23:15;2.20;;;1.17;;
68010;SDS011;54794;48.348;7.878;2023-02-11T14:25:52;2.10;;;1.10;;
68010;SDS011;54794;48.348;7.878;2023-02-11T14:29:33;2.85;;;1.50;;
68010;SDS011;54794;48.348;7.878;2023-02-11T14:34:59;3.10;;;2.03;;
68010;SDS011;54794;48.348;7.878;2023-02-11T14:41:13;5.07;;;2.78;;
68010;SDS011;54794;48.348;7.878;2023-02-11T14:43:51;4.05;;;2.67;;
68010;SDS011;54794;48.348;7.878;2023-02-11T14:46:26;5.13;;;3.20;;
68010;SDS011;54794;48.348;7.878;2023-02-11T14:49:01;4.95;;;3.20;;
68010;SDS011;54794;48.348;7.878;2023-02-11T14:51:32;4.25;;;2.90;;
68010;SDS011;54794;48.348;7.878;2023-02-11T14:54:09;6.05;;;3.83;;
68010;SDS011;54794;48.348;7.878;2023-02-11T14:56:41;5.57;;;3.63;;
68010;SDS011;54794;48.348;7.878;2023-02-11T14:59:17;5.97;;;3.42;;
68010;SDS011;54794;48.348;7.878;2023-02-11T15:01:50;6.32;;;3.70;;
68010;SDS011;54794;48.348;7.878;2023-02-11T15:06:52;6.45;;;3.67;;
68010;SDS011;54794;48.348;7.878;2023-02-11T15:09:43;4.88;;;3.28;;
68010;SDS011;54794;48.348;7.878;2023-02-11T15:12:21;5.32;;;3.45;;
68010;SDS011;54794;48.348;7.878;2023-02-11T15:14:53;5.50;;;3.50;;
68010;SDS011;54794;48.348;7.878;2023-02-11T15:17:26;5.53;;;3.55;;
68010;SDS011;54794;48.348;7.878;2023-02-11T15:19:57;6.35;;;3.53;;
68010;SDS011;54794;48.348;7.878;2023-02-11T15:22:28;6.32;;;4.07;;
68010;SDS011;54794;48.348;7.878;2023-02-11T15:25:07;6.38;;;3.92;;
68010;SDS011;54794;48.348;7.878;2023-02-11T15:27:40;5.78;;;4.10;;
68010;SDS011;54794;48.348;7.878;2023-02-11T15:32:52;6.82;;;4.40;;
68010;SDS011;54794;48.348;7.878;2023-02-11T15:35:26;6.53;;;4.25;;
68010;SDS011;54794;48.348;7.878;2023-02-11T15:37:57;7.20;;;4.70;;
68010;SDS011;54794;48.348;7.878;2023-02-11T15:42:59;6.03;;;4.10;;
68010;SDS011;54794;48.348;7.878;2023-02-11T15:46:15;8.15;;;4.72;;
68010;SDS011;54794;48.348;7.878;2023-02-11T15:48:21;7.05;;;4.38;;
68010;SDS011;54794;48.348;7.878;2023-02-11T15:51:04;6.97;;;4.63;;
68010;SDS011;54794;48.348;7.878;2023-02-11T15:53:37;8.02;;;4.38;;
68010;SDS011;54794;48.348;7.878;2023-02-11T15:56:10;6.22;;;4.20;;
68010;SDS011;54794;48.348;7.878;2023-02-11T15:58:52;7.70;;;4.63;;
68010;SDS011;54794;48.348;7.878;2023-02-11T16:01:29;7.28;;;4.63;;
68010;SDS011;54794;48.348;7.878;2023-02-11T16:04:00;6.88;;;4.22;;
68010;SDS011;54794;48.348;7.878;2023-02-11T16:06:38;9.27;;;4.57;;
68010;SDS011;54794;48.348;7.878;2023-02-11T16:11:36;9.18;;;5.03;;
68010;SDS011;54794;48.348;7.878;2023-02-11T16:16:53;8.07;;;5.32;;
68010;SDS011;54794;48.348;7.878;2023-02-11T16:19:27;9.55;;;5.88;;
68010;SDS011;54794;48.348;7.878;2023-02-11T16:21:56;9.02;;;6.22;;
68010;SDS011;54794;48.348;7.878;2023-02-11T16:24:28;7.63;;;5.00;;
68010;SDS011;54794;48.348;7.878;2023-02-11T16:27:03;7.65;;;4.97;;
68010;SDS011;54794;48.348;7.878;2023-02-11T16:29:41;9.88;;;5.32;;
68010;SDS011;54794;48.348;7.878;2023-02-11T16:32:24;8.23;;;5.30;;
68010;SDS011;54794;48.348;7.878;2023-02-11T16:34:54;8.35;;;5.30;;
68010;SDS011;54794;48.348;7.878;2023-02-11T16:37:23;7.95;;;5.40;;
68010;SDS011;54794;48.348;7.878;2023-02-11T16:39:54;13.07;;;7.57;;
68010;SDS011;54794;48.348;7.878;2023-02-11T16:42:22;9.30;;;5.90;;
68010;SDS011;54794;48.348;7.878;2023-02-11T16:47:26;7.35;;;4.63;;
68010;SDS011;54794;48.348;7.878;2023-02-11T16:49:54;8.93;;;5.33;;
68010;SDS011;54794;48.348;7.878;2023-02-11T16:52:22;9.07;;;5.47;;
68010;SDS011;54794;48.348;7.878;2023-02-11T16:54:49;8.57;;;5.32;;
68010;SDS011;54794;48.348;7.878;2023-02-11T16:57:17;10.02;;;5.43;;
68010;SDS011;54794;48.348;7.878;2023-02-11T16:59:51;12.07;;;6.82;;
68010;SDS011;54794;48.348;7.878;2023-02-11T17:02:22;11.95;;;6.50;;
68010;SDS011;54794;48.348;7.878;2023-02-11T17:05:07;9.88;;;6.32;;
68010;SDS011;54794;48.348;7.878;2023-02-11T17:07:43;10.82;;;5.90;;
68010;SDS011;54794;48.348;7.878;2023-02-11T17:10:14;9.82;;;5.85;;
68010;SDS011;54794;48.348;7.878;2023-02-11T17:12:47;8.85;;;5.78;;
68010;SDS011;54794;48.348;7.878;2023-02-11T17:15:16;11.15;;;6.35;;
68010;SDS011;54794;48.348;7.878;2023-02-11T17:17:43;9.98;;;6.18;;
68010;SDS011;54794;48.348;7.878;2023-02-11T17:20:11;12.00;;;7.47;;
68010;SDS011;54794;48.348;7.878;2023-02-11T17:22:39;11.60;;;7.28;;
68010;SDS011;54794;48.348;7.878;2023-02-11T17:25:06;12.98;;;6.88;;
68010;SDS011;54794;48.348;7.878;2023-02-11T17:27:34;11.82;;;7.40;;
68010;SDS011;54794;48.348;7.878;2023-02-11T17:30:01;10.90;;;6.75;;
68010;SDS011;54794;48.348;7.878;2023-02-11T17:32:27;13.20;;;7.03;;
68010;SDS011;54794;48.348;7.878;2023-02-11T17:34:54;10.17;;;6.90;;
68010;SDS011;54794;48.348;7.878;2023-02-11T17:37:21;13.35;;;7.57;;
68010;SDS011;54794;48.348;7.878;2023-02-11T17:39:48;11.10;;;7.17;;
68010;SDS011;54794;48.348;7.878;2023-02-11T17:42:16;10.05;;;6.40;;
68010;SDS011;54794;48.348;7.878;2023-02-11T17:44:44;9.98;;;5.78;;
68010;SDS011;54794;48.348;7.878;2023-02-11T17:47:11;10.23;;;6.07;;
68010;SDS011;54794;48.348;7.878;2023-02-11T17:49:38;10.88;;;6.65;;
68010;SDS011;54794;48.348;7.878;2023-02-11T17:54:33;9.20;;;5.68;;
68010;SDS011;54794;48.348;7.878;2023-02-11T17:57:00;8.90;;;5.40;;
68010;SDS011;54794;48.348;7.878;2023-02-11T17:59:27;8.80;;;5.65;;
68010;SDS011;54794;48.348;7.878;2023-02-11T18:02:01;10.35;;;6.10;;
68010;SDS011;54794;48.348;7.878;2023-02-11T18:04:28;8.73;;;5.43;;
68010;SDS011;54794;48.348;7.878;2023-02-11T18:06:55;9.15;;;5.60;;
68010;SDS011;54794;48.348;7.878;2023-02-11T18:09:23;13.63;;;7.43;;
68010;SDS011;54794;48.348;7.878;2023-02-11T18:11:51;10.60;;;6.22;;
68010;SDS011;54794;48.348;7.878;2023-02-11T18:14:19;9.48;;;5.88;;
68010;SDS011;54794;48.348;7.878;2023-02-11T18:16:50;10.40;;;6.47;;
68010;SDS011;54794;48.348;7.878;2023-02-11T18:19:18;12.18;;;6.53;;
68010;SDS011;54794;48.348;7.878;2023-02-11T18:21:45;13.30;;;6.70;;
68010;SDS011;54794;48.348;7.878;2023-02-11T18:24:14;9.93;;;6.53;;
68010;SDS011;54794;48.348;7.878;2023-02-11T18:26:42;9.75;;;5.53;;
68010;SDS011;54794;48.348;7.878;2023-02-11T18:29:09;9.70;;;5.60;;
68010;SDS011;54794;48.348;7.878;2023-02-11T18:31:36;9.55;;;5.65;;
68010;SDS011;54794;48.348;7.878;2023-02-11T18:34:03;9.05;;;5.82;;